Time;durP1;ratioP1;P1;durP2;ratioP2;P2;SDS_P1;SDS_P2;PMS_P1;PMS_P2;Temp;Humidity;BMP_temperature;BMP_pressure;BME280_temperature;BME280_humidity;BME280_pressure;Samples;Min_cycle;Max_cycle;Signal;HPM_P1;HPM_P2
2022/02/28 00:01:43;;;;;;;30.33;15.02;;;;;;;0.28;68.55;97536.69;4914955;29;20407;-80
2022/02/28 00:04:11;;;;;;;29.17;15.25;;;;;;;0.09;69.65;97534.00;4913976;29;20525;-80
2022/02/28 00:06:37;;;;;;;27.88;15.13;;;;;;;0.05;69.76;97535.47;4915166;29;20063;-80
2022/02/28 00:09:04;;;;;;;30.95;14.40;;;;;;;-0.02;70.11;97529.38;4914245;29;20066;-79
2022/02/28 00:11:30;;;;;;;26.05;13.65;;;;;;;0.08;69.90;97527.00;4914718;29;20055;-80
2022/02/28 00:13:57;;;;;;;26.23;13.40;;;;;;;0.11;69.21;97521.22;4914861;29;20063;-80
2022/02/28 00:16:23;;;;;;;23.90;11.90;;;;;;;0.03;68.99;97523.34;4912793;29;20056;-80
2022/02/28 00:18:50;;;;;;;22.35;11.90;;;;;;;0.07;69.54;97516.53;4915236;29;20056;-79
2022/02/28 00:21:18;;;;;;;21.85;12.75;;;;;;;-0.05;69.81;97521.81;4913282;29;20074;-79
2022/02/28 00:23:44;;;;;;;25.10;13.18;;;;;;;0.22;68.73;97527.69;4914374;29;20058;-79
2022/02/28 00:26:11;;;;;;;23.38;12.40;;;;;;;0.45;67.80;97518.97;4913560;29;20134;-80
2022/02/28 00:28:37;;;;;;;26.50;13.70;;;;;;;0.46;66.77;97518.72;4914582;29;20143;-80
2022/02/28 00:31:04;;;;;;;24.27;12.88;;;;;;;0.45;66.27;97517.09;4913251;29;20056;-80
2022/02/28 00:33:31;;;;;;;26.92;12.65;;;;;;;0.71;64.43;97515.94;4913652;29;20048;-79
2022/02/28 00:35:57;;;;;;;24.70;11.93;;;;;;;0.55;63.96;97516.56;4913502;29;20503;-80
2022/02/28 00:38:25;;;;;;;23.38;11.60;;;;;;;0.45;64.29;97516.28;4910870;29;20690;-79
2022/02/28 00:40:52;;;;;;;25.48;12.40;;;;;;;0.37;64.71;97519.28;4912795;29;20417;-79
2022/02/28 00:43:19;;;;;;;20.98;11.63;;;;;;;0.35;64.55;97516.00;4911461;29;20063;-79
2022/02/28 00:45:45;;;;;;;23.55;11.57;;;;;;;0.44;64.36;97512.78;4912984;29;20165;-79
2022/02/28 00:48:12;;;;;;;22.33;11.32;;;;;;;0.41;64.46;97512.41;4911461;29;20052;-79
2022/02/28 00:50:39;;;;;;;26.25;12.30;;;;;;;0.40;64.75;97511.59;4913075;29;20051;-79
2022/02/28 00:53:05;;;;;;;21.80;11.15;;;;;;;0.43;64.47;97515.69;4912104;29;20490;-80
2022/02/28 00:55:34;;;;;;;19.88;11.57;;;;;;;0.44;65.09;97510.09;4913388;29;20056;-81
2022/02/28 00:58:00;;;;;;;22.42;12.27;;;;;;;0.31;65.32;97509.44;4913035;29;20056;-80
2022/02/28 01:00:27;;;;;;;22.55;11.82;;;;;;;0.20;65.49;97503.78;4911776;29;20071;-79
2022/02/28 01:02:54;;;;;;;20.52;10.50;;;;;;;0.19;65.09;97496.78;4912835;29;20060;-80
2022/02/28 01:05:22;;;;;;;20.48;10.88;;;;;;;0.11;65.45;97494.44;4911188;29;20435;-80
2022/02/28 01:07:50;;;;;;;21.38;10.98;;;;;;;0.16;64.98;97494.59;4912481;29;20052;-82
2022/02/28 01:10:18;;;;;;;21.63;11.25;;;;;;;0.17;64.99;97493.53;4911754;29;20056;-80
2022/02/28 01:12:47;;;;;;;19.75;11.18;;;;;;;0.21;65.24;97489.38;4913211;29;20063;-78
2022/02/28 01:15:16;;;;;;;21.65;11.07;;;;;;;0.03;65.28;97484.00;4911297;29;20059;-80
2022/02/28 01:17:42;;;;;;;26.42;12.38;;;;;;;0.03;65.83;97486.69;4912240;29;20052;-79
2022/02/28 01:20:10;;;;;;;20.83;10.95;;;;;;;-0.08;65.60;97485.56;4911649;29;20462;-80
2022/02/28 01:22:38;;;;;;;21.60;11.63;;;;;;;0.00;64.90;97487.16;4911528;29;20063;-79
2022/02/28 01:25:07;;;;;;;19.55;10.82;;;;;;;-0.02;64.17;97473.97;4912119;29;20063;-80
2022/02/28 01:27:34;;;;;;;22.45;11.48;;;;;;;-0.04;65.14;97475.25;4911797;29;20052;-83
2022/02/28 01:30:02;;;;;;;22.15;11.63;;;;;;;-0.08;65.67;97474.03;4913253;29;20063;-80
2022/02/28 01:32:28;;;;;;;24.88;11.80;;;;;;;-0.02;66.12;97476.63;4911923;29;20768;-80
2022/02/28 01:34:55;;;;;;;22.13;12.30;;;;;;;0.02;66.45;97473.53;4913448;29;20048;-80
2022/02/28 01:37:21;;;;;;;24.45;12.77;;;;;;;0.02;66.29;97474.34;4911865;29;20063;-80
2022/02/28 01:39:48;;;;;;;21.42;11.43;;;;;;;-0.09;67.32;97472.41;4912922;29;20060;-79
2022/02/28 01:42:16;;;;;;;22.13;11.38;;;;;;;-0.23;68.32;97481.63;4912523;29;20048;-80
2022/02/28 01:44:43;;;;;;;21.80;11.45;;;;;;;-0.19;67.93;97482.81;4912925;29;20047;-80
2022/02/28 01:47:11;;;;;;;21.48;11.63;;;;;;;-0.21;68.03;97479.53;4912872;29;20970;-80
2022/02/28 01:49:38;;;;;;;18.42;10.88;;;;;;;0.07;66.29;97487.06;4912286;29;20051;-80
2022/02/28 01:52:05;;;;;;;21.02;10.45;;;;;;;0.12;65.33;97480.00;4912251;29;20062;-79
2022/02/28 01:54:32;;;;;;;20.17;10.23;;;;;;;0.18;63.84;97480.97;4913010;29;20419;-80
2022/02/28 01:56:59;;;;;;;23.38;11.10;;;;;;;0.17;64.35;97487.38;4912903;29;20047;-80
2022/02/28 01:59:25;;;;;;;19.75;9.93;;;;;;;0.29;63.51;97484.75;4911786;29;20075;-81
2022/02/28 02:01:52;;;;;;;19.48;11.13;;;;;;;0.06;65.06;97480.91;4912618;29;20537;-80
2022/02/28 02:04:20;;;;;;;20.88;10.07;;;;;;;0.01;65.46;97483.41;4911573;29;20662;-79
2022/02/28 02:06:48;;;;;;;22.02;10.98;;;;;;;0.04;64.04;97482.97;4912875;29;20051;-79
2022/02/28 02:09:16;;;;;;;22.23;11.75;;;;;;;0.09;64.03;97479.63;4912531;29;20220;-79
2022/02/28 02:11:42;;;;;;;19.95;10.52;;;;;;;-0.16;65.33;97477.81;4911815;29;20076;-79
2022/02/28 02:14:11;;;;;;;18.02;9.77;;;;;;;-0.05;66.07;97484.31;4912125;29;20051;-80
2022/02/28 02:16:38;;;;;;;19.63;10.60;;;;;;;0.03;65.92;97485.88;4911365;29;20084;-81
2022/02/28 02:19:05;;;;;;;23.02;10.98;;;;;;;-0.11;66.86;97490.53;4912753;29;20052;-81
2022/02/28 02:21:33;;;;;;;19.42;10.95;;;;;;;-0.20;67.00;97489.22;4903542;29;20055;-82
2022/02/28 02:23:59;;;;;;;17.92;10.15;;;;;;;-0.29;67.14;97492.16;4912426;29;20131;-81
2022/02/28 02:26:26;;;;;;;18.58;10.75;;;;;;;-0.36;67.86;97499.44;4912561;29;20048;-82
2022/02/28 02:28:53;;;;;;;18.25;10.70;;;;;;;-0.40;67.66;97497.44;4913065;29;20075;-81
2022/02/28 02:31:19;;;;;;;20.63;10.73;;;;;;;-0.44;67.93;97499.72;4912778;29;20059;-79
2022/02/28 02:33:46;;;;;;;19.33;11.02;;;;;;;-0.30;67.52;97506.59;4912132;29;20043;-82
2022/02/28 02:36:13;;;;;;;17.60;10.25;;;;;;;-0.34;67.91;97504.56;4913083;29;20532;-80
2022/02/28 02:38:41;;;;;;;16.77;9.63;;;;;;;-0.44;67.90;97504.25;4913076;29;20131;-80
2022/02/28 02:41:08;;;;;;;20.85;11.10;;;;;;;-0.51;67.59;97507.00;4902986;29;20144;-79
2022/02/28 02:43:35;;;;;;;18.20;11.43;;;;;;;-0.55;68.34;97500.44;4912857;29;20131;-79
2022/02/28 02:46:02;;;;;;;22.98;12.65;;;;;;;-0.66;68.70;97499.28;4903321;29;20047;-79
2022/02/28 02:48:29;;;;;;;20.85;10.68;;;;;;;-0.67;68.66;97497.66;4911396;29;20048;-82
2022/02/28 02:50:56;;;;;;;20.55;10.98;;;;;;;-0.64;68.42;97501.75;4913472;29;20051;-82
2022/02/28 02:53:23;;;;;;;20.92;10.98;;;;;;;-0.65;68.61;97500.94;4912077;29;20517;-79
2022/02/28 02:55:51;;;;;;;24.98;11.48;;;;;;;-0.52;68.06;97489.31;4895397;29;20059;-81
2022/02/28 02:58:18;;;;;;;20.27;11.55;;;;;;;-0.35;67.60;97497.59;4912017;29;20402;-79
2022/02/28 03:00:47;;;;;;;17.58;10.60;;;;;;;-0.17;66.05;97497.59;4910131;29;20111;-81
2022/02/28 03:03:19;;;;;;;17.23;9.88;;;;;;;-0.20;66.34;97497.25;4911477;29;20048;-82
2022/02/28 03:05:46;;;;;;;19.27;10.20;;;;;;;0.03;64.86;97510.78;4912020;29;20044;-79
2022/02/28 03:08:12;;;;;;;16.80;10.20;;;;;;;0.03;64.06;97502.75;4911944;29;20512;-80
2022/02/28 03:10:39;;;;;;;18.45;10.02;;;;;;;-0.05;64.32;97503.06;4910852;29;20526;-79
2022/02/28 03:13:07;;;;;;;17.55;10.05;;;;;;;0.01;63.63;97509.38;4910621;29;20048;-80
2022/02/28 03:15:34;;;;;;;18.25;9.77;;;;;;;0.06;63.79;97507.69;4910686;29;20060;-82
2022/02/28 03:18:01;;;;;;;20.58;10.27;;;;;;;-0.07;64.22;97502.44;4911194;29;20056;-79
2022/02/28 03:20:27;;;;;;;18.67;10.20;;;;;;;-0.39;67.04;97515.13;4910966;29;20491;-80
2022/02/28 03:22:54;;;;;;;21.67;10.27;;;;;;;-0.62;67.70;97516.56;4911419;29;20064;-81
2022/02/28 03:25:21;;;;;;;19.50;10.95;;;;;;;-0.79;67.50;97518.09;4912218;29;20463;-80
2022/02/28 03:27:48;;;;;;;20.83;10.80;;;;;;;-0.92;68.18;97508.34;4912140;29;20074;-79
2022/02/28 03:30:16;;;;;;;20.90;10.98;;;;;;;-1.02;68.41;97509.84;4912322;29;20082;-80
2022/02/28 03:32:42;;;;;;;22.20;11.23;;;;;;;-1.07;69.32;97507.81;4912109;29;20127;-79
2022/02/28 03:35:10;;;;;;;20.17;10.43;;;;;;;-1.08;69.57;97506.19;4911422;29;20158;-79
2022/02/28 03:37:37;;;;;;;20.30;10.65;;;;;;;-0.88;69.11;97512.22;4894812;29;20148;-79
2022/02/28 03:40:04;;;;;;;22.35;10.40;;;;;;;-0.63;67.19;97514.88;4911005;29;20127;-80
2022/02/28 03:42:31;;;;;;;20.67;11.27;;;;;;;-0.48;66.36;97511.88;4894873;29;20060;-79
2022/02/28 03:44:57;;;;;;;22.30;11.35;;;;;;;-0.29;65.94;97520.78;4911715;29;20507;-81
2022/02/28 03:47:25;;;;;;;18.73;9.82;;;;;;;-0.45;66.30;97522.16;4910941;29;20074;-79
2022/02/28 03:49:52;;;;;;;20.35;10.18;;;;;;;-0.68;67.00;97521.94;4910876;29;20048;-80
2022/02/28 03:52:18;;;;;;;18.42;10.05;;;;;;;-0.65;67.07;97518.84;4911410;29;20060;-79
2022/02/28 03:54:45;;;;;;;21.60;11.38;;;;;;;-0.65;67.78;97513.47;4910808;29;20052;-83
2022/02/28 03:57:12;;;;;;;20.33;10.20;;;;;;;-0.87;68.32;97507.69;4911119;29;20060;-80
2022/02/28 03:59:38;;;;;;;22.45;10.48;;;;;;;-1.08;69.80;97508.84;4911359;29;20079;-79
2022/02/28 04:02:05;;;;;;;19.08;10.63;;;;;;;-1.07;69.51;97513.97;4910380;29;20059;-80
2022/02/28 04:04:33;;;;;;;22.75;10.90;;;;;;;-1.07;69.56;97513.16;4911729;29;20056;-80
2022/02/28 04:07:00;;;;;;;22.42;11.27;;;;;;;-1.12;69.45;97507.66;4911311;29;20150;-79
2022/02/28 04:09:27;;;;;;;21.33;11.48;;;;;;;-1.30;69.25;97513.72;4894825;29;20419;-79
2022/02/28 04:11:53;;;;;;;22.08;11.55;;;;;;;-1.18;69.70;97512.00;4910930;29;20062;-79
2022/02/28 04:14:20;;;;;;;19.77;10.60;;;;;;;-1.26;70.34;97514.09;4911845;29;20131;-79
2022/02/28 04:16:47;;;;;;;18.95;9.88;;;;;;;-0.93;68.72;97522.75;4914445;29;20115;-79
2022/02/28 04:19:15;;;;;;;20.08;10.80;;;;;;;-0.94;68.80;97513.09;4898020;29;20600;-80
2022/02/28 04:21:43;;;;;;;20.10;10.65;;;;;;;-0.98;68.76;97511.88;4914081;29;20048;-79
2022/02/28 04:24:09;;;;;;;23.10;11.98;;;;;;;-1.15;69.58;97508.06;4914676;29;20056;-79
2022/02/28 04:26:37;;;;;;;24.98;11.10;;;;;;;-1.19;69.67;97514.91;4898658;29;20048;-80
2022/02/28 04:29:03;;;;;;;22.52;11.23;;;;;;;-1.12;69.38;97515.66;4914804;29;20063;-84
2022/02/28 04:31:30;;;;;;;21.90;11.13;;;;;;;-1.02;69.37;97510.66;4915400;29;20056;-79
2022/02/28 04:33:57;;;;;;;21.92;10.82;;;;;;;-1.13;69.15;97514.84;4913868;29;20054;-79
2022/02/28 04:36:24;;;;;;;19.30;9.82;;;;;;;-1.08;69.27;97507.00;4914591;29;20051;-79
2022/02/28 04:38:51;;;;;;;22.02;11.32;;;;;;;-1.12;69.77;97510.31;4914831;29;20068;-80
2022/02/28 04:41:18;;;;;;;25.55;12.38;;;;;;;-1.15;69.87;97521.44;4915591;29;20052;-84
2022/02/28 04:43:45;;;;;;;21.23;11.50;;;;;;;-1.21;69.94;97523.09;4914491;29;20050;-81
2022/02/28 04:46:11;;;;;;;21.63;11.35;;;;;;;-1.22;70.51;97515.31;4912868;29;20056;-80
2022/02/28 04:48:38;;;;;;;19.35;10.35;;;;;;;-1.20;70.39;97508.72;4914082;29;20063;-79
2022/02/28 04:51:05;;;;;;;26.52;12.20;;;;;;;-1.24;70.31;97514.72;4913675;29;20044;-79
2022/02/28 04:53:31;;;;;;;21.63;11.13;;;;;;;-1.08;69.67;97514.22;4897656;29;20462;-79
2022/02/28 04:55:59;;;;;;;21.58;11.55;;;;;;;-0.95;69.33;97522.13;4913911;29;20059;-81
2022/02/28 04:58:26;;;;;;;20.45;10.48;;;;;;;-0.72;66.85;97513.53;4914241;29;20044;-82
2022/02/28 05:00:53;;;;;;;18.77;9.65;;;;;;;-0.58;64.44;97520.41;4913649;29;20056;-82
2022/02/28 05:03:20;;;;;;;21.58;10.13;;;;;;;-0.57;64.87;97514.03;4913100;29;20048;-82
2022/02/28 05:05:47;;;;;;;18.83;10.05;;;;;;;-0.82;66.44;97524.72;4913296;29;20040;-82
2022/02/28 05:08:14;;;;;;;20.30;10.70;;;;;;;-0.79;66.88;97523.44;4913297;29;20082;-81
2022/02/28 05:10:40;;;;;;;22.00;11.48;;;;;;;-0.90;67.97;97518.81;4913259;29;20578;-83
2022/02/28 05:13:09;;;;;;;19.98;10.07;;;;;;;-0.69;66.94;97520.31;4912336;29;20058;-79
2022/02/28 05:15:36;;;;;;;20.20;11.25;;;;;;;-0.64;66.89;97525.81;4913926;29;20059;-79
2022/02/28 05:18:03;;;;;;;17.13;10.20;;;;;;;-0.67;66.09;97524.41;4912746;29;20060;-80
2022/02/28 05:20:29;;;;;;;18.83;10.93;;;;;;;-0.74;67.00;97520.13;4913877;29;20048;-80
2022/02/28 05:22:56;;;;;;;19.95;10.60;;;;;;;-0.86;67.95;97534.19;4913410;29;20051;-80
2022/02/28 05:25:23;;;;;;;23.25;11.07;;;;;;;-0.97;68.33;97524.22;4913139;29;20048;-79
2022/02/28 05:27:50;;;;;;;19.80;11.23;;;;;;;-1.20;68.59;97529.25;4913157;29;20422;-83
2022/02/28 05:30:18;;;;;;;19.20;10.30;;;;;;;-1.36;69.38;97526.09;4913297;29;20139;-80
2022/02/28 05:32:44;;;;;;;25.65;11.48;;;;;;;-1.32;69.52;97531.81;4913384;29;20044;-80
2022/02/28 05:35:12;;;;;;;20.02;10.75;;;;;;;-1.32;69.84;97527.28;4897076;29;20056;-80
2022/02/28 05:37:40;;;;;;;21.05;11.80;;;;;;;-1.43;70.14;97525.28;4913558;29;20074;-79
2022/02/28 05:40:09;;;;;;;26.00;12.23;;;;;;;-1.46;70.91;97524.88;4902511;29;20516;-81
2022/02/28 05:42:35;;;;;;;22.45;12.10;;;;;;;-1.55;71.53;97537.69;4913482;29;20083;-80
2022/02/28 05:45:03;;;;;;;23.67;11.23;;;;;;;-1.56;72.12;97530.69;4895855;29;20056;-80
2022/02/28 05:47:31;;;;;;;24.25;12.00;;;;;;;-1.65;71.83;97539.97;4914345;29;20040;-82
2022/02/28 05:49:58;;;;;;;23.15;12.98;;;;;;;-1.68;71.51;97535.03;4913157;29;20559;-79
2022/02/28 05:52:27;;;;;;;22.52;12.57;;;;;;;-1.54;71.26;97539.31;4913067;29;20044;-79
2022/02/28 05:54:55;;;;;;;28.05;12.82;;;;;;;-1.66;71.96;97535.66;4912998;29;20062;-83
2022/02/28 05:57:22;;;;;;;33.35;12.57;;;;;;;-1.68;72.38;97537.72;4912958;29;20052;-80
2022/02/28 05:59:49;;;;;;;24.30;12.00;;;;;;;-1.68;72.74;97543.06;4913272;29;20052;-80
2022/02/28 06:02:15;;;;;;;27.23;12.90;;;;;;;-1.67;73.06;97539.34;4912114;29;20119;-80
2022/02/28 06:04:43;;;;;;;26.25;13.05;;;;;;;-1.69;73.14;97541.41;4913351;29;20058;-79
2022/02/28 06:07:10;;;;;;;28.52;13.68;;;;;;;-1.66;73.12;97541.00;4912238;29;20044;-80
2022/02/28 06:09:39;;;;;;;24.70;12.85;;;;;;;-1.37;72.28;97543.13;4913486;29;20048;-79
2022/02/28 06:12:07;;;;;;;33.90;17.50;;;;;;;-1.11;70.29;97544.84;4911488;29;20135;-81
2022/02/28 06:14:33;;;;;;;33.40;16.38;;;;;;;-1.12;70.28;97548.56;4911534;29;20048;-81
2022/02/28 06:17:00;;;;;;;28.08;14.02;;;;;;;-1.11;70.36;97549.38;4913053;29;20048;-82
2022/02/28 06:19:27;;;;;;;23.13;12.57;;;;;;;-1.17;70.71;97551.06;4912715;29;20409;-82
2022/02/28 06:21:58;;;;;;;31.98;15.07;;;;;;;-0.88;70.19;97549.66;4912709;29;20115;-81
2022/02/28 06:24:25;;;;;;;31.98;14.50;;;;;;;-0.86;70.69;97547.56;4911137;29;20062;-80
2022/02/28 06:26:54;;;;;;;28.05;14.50;;;;;;;-0.75;70.28;97554.09;4912638;29;20052;-80
2022/02/28 06:29:21;;;;;;;27.85;15.02;;;;;;;-0.64;69.69;97549.88;4910786;29;20079;-82
2022/02/28 06:31:50;;;;;;;25.10;13.45;;;;;;;-0.76;70.03;97549.78;4899513;29;20052;-82
2022/02/28 06:34:20;;;;;;;29.23;14.20;;;;;;;-0.92;70.10;97561.81;4916792;29;20058;-81
2022/02/28 06:36:47;;;;;;;26.38;12.90;;;;;;;-0.88;70.45;97565.69;4891537;29;20044;-80
2022/02/28 06:39:16;;;;;;;29.63;13.73;;;;;;;-0.81;71.06;97566.47;4911174;29;20040;-81
2022/02/28 06:41:43;;;;;;;27.48;14.93;;;;;;;-0.71;71.14;97567.84;4903388;29;20744;-82
2022/02/28 06:44:10;;;;;;;27.88;13.48;;;;;;;-0.67;71.23;97571.75;4901068;29;20128;-82
2022/02/28 06:46:38;;;;;;;30.67;13.60;;;;;;;-0.61;71.27;97573.53;4912545;29;20147;-82
2022/02/28 06:49:07;;;;;;;24.52;13.45;;;;;;;-0.60;70.46;97580.53;4876190;29;20049;-83
2022/02/28 06:51:35;;;;;;;26.45;13.65;;;;;;;-0.57;70.90;97574.75;4881489;29;20052;-81
2022/02/28 06:54:09;;;;;;;30.67;14.68;;;;;;;-0.61;71.59;97568.19;4902925;29;20109;-81
2022/02/28 06:56:38;;;;;;;35.70;16.05;;;;;;;-0.62;71.92;97563.88;4905438;29;20058;-81
2022/02/28 06:59:06;;;;;;;27.95;13.68;;;;;;;-0.44;71.37;97561.25;4896787;29;20056;-81
2022/02/28 07:01:36;;;;;;;23.38;11.55;;;;;;;-0.24;70.47;97565.63;4896829;29;20055;-82
2022/02/28 07:04:03;;;;;;;24.27;11.85;;;;;;;-0.20;70.15;97566.84;4905163;29;20108;-81
2022/02/28 07:06:32;;;;;;;25.48;11.95;;;;;;;-0.17;70.50;97571.75;4913661;29;20075;-81
2022/02/28 07:09:00;;;;;;;27.27;11.68;;;;;;;0.01;69.50;97571.78;4905535;29;20598;-84
2022/02/28 07:11:27;;;;;;;22.58;11.23;;;;;;;0.04;69.79;97565.97;4913759;29;20048;-82
2022/02/28 07:13:56;;;;;;;21.90;11.82;;;;;;;0.03;69.96;97577.72;4915190;29;20060;-82
2022/02/28 07:16:25;;;;;;;22.88;11.82;;;;;;;0.16;68.71;97574.94;4897592;29;20522;-82
2022/02/28 07:18:52;;;;;;;18.38;10.52;;;;;;;0.18;69.03;97564.81;4895545;29;20060;-82
2022/02/28 07:21:22;;;;;;;24.13;11.90;;;;;;;0.20;70.18;97573.44;4885646;29;20108;-82
2022/02/28 07:23:51;;;;;;;22.40;11.48;;;;;;;0.29;68.59;97565.94;4868808;29;20115;-83
2022/02/28 07:26:20;;;;;;;19.90;10.88;;;;;;;0.27;68.91;97570.72;4889183;29;20048;-82
2022/02/28 07:28:51;;;;;;;21.77;11.52;;;;;;;0.30;69.90;97572.09;4899351;29;20072;-83
2022/02/28 07:31:19;;;;;;;23.75;12.05;;;;;;;0.32;69.63;97576.22;4883897;29;20063;-82
2022/02/28 07:33:47;;;;;;;20.85;12.10;;;;;;;0.49;67.23;97573.75;4886412;29;20048;-83
2022/02/28 07:36:15;;;;;;;26.17;12.55;;;;;;;0.54;68.87;97581.13;4889622;29;20072;-83
2022/02/28 07:38:44;;;;;;;20.90;10.48;;;;;;;0.59;69.56;97584.78;4892687;29;20048;-82
2022/02/28 07:41:11;;;;;;;23.50;11.35;;;;;;;0.66;67.40;97582.81;4902156;29;20045;-82
2022/02/28 07:43:39;;;;;;;21.63;11.98;;;;;;;0.85;67.19;97585.50;4902500;29;20069;-82
2022/02/28 07:46:06;;;;;;;21.33;11.43;;;;;;;0.98;67.43;97590.69;4896519;29;20060;-83
2022/02/28 07:48:37;;;;;;;19.77;11.25;;;;;;;0.94;66.69;97594.84;4898245;29;20082;-83
2022/02/28 07:51:13;;;;;;;20.02;10.25;;;;;;;0.93;67.43;97594.03;4914118;29;20107;-82
2022/02/28 07:53:44;;;;;;;21.05;10.82;;;;;;;1.11;67.80;97597.75;4914930;29;20052;-83
2022/02/28 07:56:11;;;;;;;21.00;11.55;;;;;;;1.29;64.53;97593.13;4915341;29;20112;-82
2022/02/28 07:58:38;;;;;;;21.58;12.13;;;;;;;1.26;66.74;97598.97;4923932;29;20071;-82
2022/02/28 08:01:08;;;;;;;24.48;11.35;;;;;;;1.32;66.36;97596.44;4922688;29;20050;-82
2022/02/28 08:03:39;;;;;;;21.17;11.60;;;;;;;1.30;66.81;97599.31;4923152;29;20044;-82
2022/02/28 08:06:07;;;;;;;25.10;11.88;;;;;;;1.32;67.86;97601.78;4863606;29;20044;-83
2022/02/28 08:08:37;;;;;;;20.20;11.20;;;;;;;1.40;67.69;97604.13;4897086;29;20148;-83
2022/02/28 08:11:04;;;;;;;22.98;11.80;;;;;;;1.51;67.51;97608.72;4905513;29;20052;-81
2022/02/28 08:13:32;;;;;;;20.33;11.68;;;;;;;1.57;66.92;97610.50;4911126;29;20044;-82
2022/02/28 08:16:01;;;;;;;20.63;11.80;;;;;;;1.62;68.44;97607.97;4887543;29;20059;-82
2022/02/28 08:18:28;;;;;;;20.15;11.75;;;;;;;1.73;65.74;97603.66;4899504;29;20060;-83
2022/02/28 08:21:07;;;;;;;18.17;11.02;;;;;;;1.85;67.57;97606.34;4908125;29;20095;-81
2022/02/28 08:23:34;;;;;;;20.77;11.27;;;;;;;2.00;64.63;97609.41;4914116;29;20048;-81
2022/02/28 08:26:00;;;;;;;20.55;11.35;;;;;;;2.06;65.09;97605.78;4916239;29;20111;-82
2022/02/28 08:28:27;;;;;;;18.27;10.95;;;;;;;2.32;66.94;97601.81;4905667;29;20059;-83
2022/02/28 08:30:54;;;;;;;20.17;11.00;;;;;;;2.92;62.78;97603.34;4904612;29;20109;-81
2022/02/28 08:33:21;;;;;;;20.02;11.43;;;;;;;3.79;59.46;97600.38;4914818;29;20054;-81
2022/02/28 08:35:47;;;;;;;23.50;11.82;;;;;;;4.58;57.64;97595.66;4916149;29;20068;-82
2022/02/28 08:38:17;;;;;;;20.83;11.52;;;;;;;4.87;58.78;97593.63;4897773;29;20146;-81
2022/02/28 08:40:44;;;;;;;17.40;10.68;;;;;;;4.62;56.65;97590.59;4915760;29;20423;-81
2022/02/28 08:43:12;;;;;;;21.02;11.85;;;;;;;4.66;57.77;97591.72;4903532;29;20066;-82
2022/02/28 08:45:39;;;;;;;19.73;11.30;;;;;;;5.31;56.17;97592.78;4913325;29;20677;-81
2022/02/28 08:48:06;;;;;;;19.42;11.27;;;;;;;6.54;55.89;97595.47;4912665;29;20055;-81
2022/02/28 08:50:34;;;;;;;18.73;10.60;;;;;;;7.56;49.05;97593.97;4913821;29;20059;-81
2022/02/28 08:53:01;;;;;;;18.77;10.60;;;;;;;8.10;48.26;97590.78;4903577;29;20710;-81
2022/02/28 08:55:28;;;;;;;19.63;10.32;;;;;;;8.69;46.42;97596.72;4912739;29;20055;-81
2022/02/28 08:57:55;;;;;;;17.55;11.05;;;;;;;9.24;43.93;97594.88;4906435;29;20055;-82
2022/02/28 09:00:22;;;;;;;17.10;10.18;;;;;;;9.34;42.14;97589.38;4910724;29;20550;-80
2022/02/28 09:02:49;;;;;;;16.92;9.90;;;;;;;9.41;43.67;97592.63;4913820;29;20131;-81
2022/02/28 09:05:16;;;;;;;14.98;9.30;;;;;;;9.54;41.23;97593.91;4912018;29;20099;-81
2022/02/28 09:07:42;;;;;;;15.45;9.48;;;;;;;9.71;38.87;97598.97;4914009;29;20052;-81
2022/02/28 09:10:10;;;;;;;15.57;10.35;;;;;;;9.68;40.96;97589.47;4912488;29;20055;-81
2022/02/28 09:12:38;;;;;;;15.35;9.05;;;;;;;10.08;40.93;97582.94;4913699;29;20044;-82
2022/02/28 09:15:06;;;;;;;16.65;9.70;;;;;;;10.34;39.91;97591.72;4912154;29;20143;-82
2022/02/28 09:17:32;;;;;;;19.85;9.52;;;;;;;10.49;40.26;97590.75;4913308;29;20040;-81
2022/02/28 09:19:59;;;;;;;18.35;9.50;;;;;;;10.05;40.04;97591.66;4912670;29;20052;-80
2022/02/28 09:22:27;;;;;;;19.05;10.07;;;;;;;9.94;39.43;97603.72;4894864;29;20627;-82
2022/02/28 09:24:53;;;;;;;17.70;9.68;;;;;;;9.92;39.69;97603.22;4913334;29;20052;-79
2022/02/28 09:27:20;;;;;;;18.85;9.77;;;;;;;9.45;40.23;97601.88;4912056;29;20056;-81
2022/02/28 09:29:48;;;;;;;19.00;9.82;;;;;;;9.51;42.51;97594.50;4913430;29;20059;-81
2022/02/28 09:32:14;;;;;;;15.00;9.05;;;;;;;9.47;39.27;97598.84;4911606;29;20060;-81
2022/02/28 09:34:41;;;;;;;16.10;9.55;;;;;;;9.75;40.63;97602.75;4913231;29;20076;-79
2022/02/28 09:37:08;;;;;;;14.70;9.05;;;;;;;10.11;40.19;97601.41;4911718;29;20064;-80
2022/02/28 09:39:35;;;;;;;14.30;9.10;;;;;;;10.39;38.64;97599.06;4914102;29;20529;-79
2022/02/28 09:42:04;;;;;;;15.07;8.93;;;;;;;10.37;37.14;97595.78;4912122;29;20079;-80
2022/02/28 09:44:32;;;;;;;13.98;9.15;;;;;;;10.17;39.68;97597.53;4913282;29;20244;-80
2022/02/28 09:47:01;;;;;;;15.05;9.85;;;;;;;10.14;41.00;97603.56;4914239;29;20575;-79
2022/02/28 09:49:28;;;;;;;15.88;9.45;;;;;;;10.24;37.67;97602.72;4912223;29;20131;-79
2022/02/28 09:51:54;;;;;;;12.68;8.43;;;;;;;10.60;39.25;97595.03;4912418;29;20055;-79
2022/02/28 09:54:21;;;;;;;14.68;9.30;;;;;;;11.12;39.74;97590.66;4911246;29;20051;-81
2022/02/28 09:56:48;;;;;;;13.48;9.73;;;;;;;11.20;38.23;97589.97;4912745;29;20044;-82
2022/02/28 09:59:14;;;;;;;17.05;9.20;;;;;;;11.10;38.90;97598.28;4911338;29;20056;-81
2022/02/28 10:01:44;;;;;;;14.32;8.93;;;;;;;11.66;37.83;97599.47;4911837;29;20048;-82
2022/02/28 10:04:13;;;;;;;13.90;8.55;;;;;;;11.69;34.33;97599.72;4912165;29;20067;-79
2022/02/28 10:06:40;;;;;;;13.27;9.27;;;;;;;11.68;34.41;97603.53;4912178;29;20051;-81
2022/02/28 10:09:08;;;;;;;13.80;9.55;;;;;;;12.51;35.92;97598.44;4912441;29;20063;-79
2022/02/28 10:11:39;;;;;;;14.38;8.43;;;;;;;13.14;33.65;97595.06;4911529;29;20048;-79
2022/02/28 10:14:07;;;;;;;14.25;7.95;;;;;;;13.48;34.51;97582.94;4910449;29;20053;-81
2022/02/28 10:16:35;;;;;;;11.88;8.25;;;;;;;14.11;35.05;97584.78;4911986;29;20048;-81
2022/02/28 10:19:04;;;;;;;13.55;9.10;;;;;;;14.67;29.95;97586.16;4912974;29;20066;-79
2022/02/28 10:21:44;;;;;;;11.40;8.20;;;;;;;15.23;27.55;97587.34;4911455;29;20051;-79
2022/02/28 10:24:13;;;;;;;11.77;8.15;;;;;;;15.19;27.94;97583.63;4911773;29;20675;-79
2022/02/28 10:26:44;;;;;;;14.15;8.95;;;;;;;15.49;29.52;97589.34;4912581;29;20044;-81
2022/02/28 10:29:12;;;;;;;13.32;8.05;;;;;;;15.73;26.68;97589.75;4910627;29;20048;-81
2022/02/28 10:31:40;;;;;;;16.23;8.73;;;;;;;15.59;29.91;97595.34;4913647;29;20052;-81
2022/02/28 10:34:18;;;;;;;17.50;8.93;;;;;;;15.31;29.94;97586.56;4910973;29;20056;-80
2022/02/28 10:36:49;;;;;;;11.75;8.25;;;;;;;15.20;30.15;97588.00;4912238;29;20059;-79
2022/02/28 10:39:22;;;;;;;14.38;8.35;;;;;;;15.13;29.97;97576.66;4911996;29;20063;-79
2022/02/28 10:41:50;;;;;;;12.93;8.02;;;;;;;14.67;26.57;97575.19;4911176;29;20063;-79
2022/02/28 10:44:16;;;;;;;11.40;8.07;;;;;;;14.59;28.81;97579.47;4910783;29;20059;-81
2022/02/28 10:46:45;;;;;;;13.52;8.40;;;;;;;14.62;28.73;97578.06;4912692;29;20048;-79
2022/02/28 10:49:15;;;;;;;13.43;8.65;;;;;;;14.57;27.95;97583.66;4911048;29;20047;-79
2022/02/28 10:51:49;;;;;;;13.27;8.60;;;;;;;14.01;30.14;97574.06;4913012;29;20052;-79
2022/02/28 10:54:20;;;;;;;14.25;8.50;;;;;;;14.05;28.68;97569.59;4911089;29;20052;-80
2022/02/28 10:56:51;;;;;;;14.20;8.57;;;;;;;13.99;30.09;97576.28;4911097;29;20136;-80
2022/02/28 10:59:19;;;;;;;12.98;9.07;;;;;;;14.23;31.56;97571.31;4911371;29;20051;-79
2022/02/28 11:01:45;;;;;;;14.82;9.10;;;;;;;14.15;30.41;97569.34;4911226;29;20423;-79
2022/02/28 11:04:12;;;;;;;12.77;9.10;;;;;;;14.01;28.50;97565.84;4911504;29;20512;-80
2022/02/28 11:06:41;;;;;;;13.20;8.85;;;;;;;13.77;29.30;97566.94;4911325;29;20048;-82
2022/02/28 11:09:09;;;;;;;13.10;8.68;;;;;;;13.51;30.44;97565.88;4911026;29;20060;-79
2022/02/28 11:11:36;;;;;;;16.15;9.35;;;;;;;12.79;30.55;97561.88;4911175;29;20048;-82
2022/02/28 11:14:02;;;;;;;14.65;9.27;;;;;;;12.71;32.85;97556.28;4908589;29;20048;-79
2022/02/28 11:16:30;;;;;;;12.70;9.13;;;;;;;12.40;33.88;97553.28;4912034;29;20040;-81
2022/02/28 11:18:57;;;;;;;14.40;8.88;;;;;;;11.84;31.44;97567.84;4911763;29;20055;-80
2022/02/28 11:21:24;;;;;;;14.32;8.52;;;;;;;11.74;32.82;97564.16;4913705;29;20537;-82
2022/02/28 11:23:50;;;;;;;13.40;8.75;;;;;;;11.46;31.86;97556.94;4897183;29;20576;-80